Time;durP1;ratioP1;P1;durP2;ratioP2;P2;SDS_P1;SDS_P2;PMS_P1;PMS_P2;Temp;Humidity;BMP_temperature;BMP_pressure;BME280_temperature;BME280_humidity;BME280_pressure;Samples;Min_cycle;Max_cycle;Signal;HPM_P1;HPM_P2
2022/01/15 00:00:16;;;;;;;2.12;0.90;;;;;;;0.73;79.16;98104.29;1723659;81;21437;-63
2022/01/15 00:02:42;;;;;;;4.12;1.10;;;;;;;0.71;76.36;98106.50;1703523;81;21136;-64
2022/01/15 00:05:10;;;;;;;6.08;2.25;;;;;;;0.75;76.10;98100.50;1716057;81;21175;-66
2022/01/15 00:07:38;;;;;;;5.40;1.82;;;;;;;0.73;76.96;98109.72;1701553;81;21100;-67
2022/01/15 00:10:07;;;;;;;3.42;1.20;;;;;;;0.74;76.35;98102.39;1696407;81;21083;-66
2022/01/15 00:12:41;;;;;;;2.77;1.10;;;;;;;0.73;73.86;98107.00;1713486;82;21117;-63
2022/01/15 00:15:13;;;;;;;8.58;2.52;;;;;;;0.76;72.61;98107.53;1702444;81;21057;-67
2022/01/15 00:17:46;;;;;;;4.00;0.90;;;;;;;0.77;70.37;98102.38;1704045;81;21553;-66
2022/01/15 00:20:16;;;;;;;6.92;1.17;;;;;;;0.78;70.76;98110.77;1701893;82;21575;-68
2022/01/15 00:22:43;;;;;;;8.00;1.30;;;;;;;0.78;66.46;98121.61;1701333;81;21667;-63
2022/01/15 00:25:12;;;;;;;5.85;1.45;;;;;;;0.80;67.58;98118.06;1713504;81;21559;-65
2022/01/15 00:27:39;;;;;;;2.62;0.88;;;;;;;0.81;67.58;98121.84;1699670;81;21129;-64
2022/01/15 00:30:08;;;;;;;4.15;1.10;;;;;;;0.82;69.57;98122.09;1699481;81;21494;-65
2022/01/15 00:32:35;;;;;;;7.40;1.15;;;;;;;0.80;68.22;98135.70;1712949;81;21080;-65
2022/01/15 00:35:03;;;;;;;5.12;0.88;;;;;;;0.79;69.38;98130.81;1709168;81;21100;-65
2022/01/15 00:37:33;;;;;;;5.90;1.00;;;;;;;0.78;68.69;98125.68;1701954;81;21095;-65
2022/01/15 00:40:00;;;;;;;1.60;0.80;;;;;;;0.76;67.81;98132.75;1731437;81;21141;-63
2022/01/15 00:42:30;;;;;;;4.50;1.02;;;;;;;0.75;68.41;98131.69;1753545;81;21007;-64
2022/01/15 00:44:59;;;;;;;2.72;0.93;;;;;;;0.76;70.09;98145.49;1743415;80;21047;-64
2022/01/15 00:47:30;;;;;;;2.72;0.90;;;;;;;0.73;68.83;98146.89;1734942;79;21562;-67
2022/01/15 00:49:54;;;;;;;3.58;1.20;;;;;;;0.71;66.27;98149.08;1734605;81;21121;-67
2022/01/15 00:52:20;;;;;;;5.22;1.27;;;;;;;0.72;67.03;98143.91;1752893;81;21110;-67
2022/01/15 00:54:47;;;;;;;6.03;1.00;;;;;;;0.71;69.57;98151.25;1729674;79;21027;-65
2022/01/15 00:57:13;;;;;;;4.92;1.70;;;;;;;0.73;71.42;98135.48;1753060;79;21596;-68
2022/01/15 00:59:40;;;;;;;3.50;1.75;;;;;;;0.75;74.66;98154.73;1725841;79;21038;-67
2022/01/15 01:02:06;;;;;;;3.37;1.00;;;;;;;0.67;77.56;98140.70;1738656;80;21536;-67
2022/01/15 01:04:35;;;;;;;2.95;0.93;;;;;;;0.62;74.95;98155.67;1736781;79;21089;-64
2022/01/15 01:07:05;;;;;;;3.72;1.12;;;;;;;0.55;73.54;98168.22;1722430;80;21070;-65
2022/01/15 01:10:35;;;;;;;6.15;1.40;;;;;;;0.57;72.77;98154.37;1756774;79;21181;-65
2022/01/15 01:12:20;;;;;;;6.53;1.55;;;;;;;0.61;72.77;98160.84;1666284;83;21245;-65
2022/01/15 01:20:07;;;;;;;5.75;1.72;;;;;;;0.65;66.56;98172.72;1725409;81;21016;-64
2022/01/15 01:24:59;;;;;;;2.95;1.07;;;;;;;0.67;66.42;98169.17;1739959;79;21053;-68
2022/01/15 01:27:42;;;;;;;11.28;1.10;;;;;;;0.70;67.35;98178.66;1739210;79;20986;-66
2022/01/15 01:30:13;;;;;;;10.00;1.00;;;;;;;0.68;65.65;98166.72;1741495;80;21597;-66
2022/01/15 01:32:46;;;;;;;4.53;1.15;;;;;;;0.67;65.47;98189.52;1745424;81;20997;-64
2022/01/15 01:35:13;;;;;;;4.47;1.20;;;;;;;0.68;67.05;98193.83;1704540;80;20982;-66
2022/01/15 01:37:41;;;;;;;5.50;1.02;;;;;;;0.67;66.48;98199.00;1746996;80;21533;-67
2022/01/15 01:40:23;;;;;;;4.08;0.80;;;;;;;0.66;67.59;98183.84;1720070;80;21483;-66
2022/01/15 01:42:59;;;;;;;4.10;1.05;;;;;;;0.64;66.44;98195.52;1733227;80;21262;-64
2022/01/15 01:45:22;;;;;;;3.50;0.85;;;;;;;0.63;66.92;98198.52;1741331;80;21463;-65
2022/01/15 01:47:48;;;;;;;11.22;1.25;;;;;;;0.60;67.75;98201.23;1736459;81;21046;-64
2022/01/15 01:50:20;;;;;;;4.47;1.20;;;;;;;0.59;67.48;98209.13;1742198;79;21890;-66
2022/01/15 01:52:51;;;;;;;2.70;0.65;;;;;;;0.58;69.04;98201.52;1726090;81;21073;-65
2022/01/15 01:55:19;;;;;;;4.67;1.70;;;;;;;0.56;67.28;98205.06;1741866;81;21184;-63
2022/01/15 01:57:46;;;;;;;4.83;1.42;;;;;;;0.56;69.21;98236.81;1736392;79;21065;-64
2022/01/15 02:00:15;;;;;;;4.72;0.90;;;;;;;0.53;89.47;98240.09;1738919;80;21134;-66
2022/01/15 02:02:43;;;;;;;2.67;0.70;;;;;;;0.18;97.13;98261.77;1741651;81;21113;-67
2022/01/15 02:05:11;;;;;;;5.80;1.17;;;;;;;0.05;100.00;98246.39;1745653;80;20986;-66
2022/01/15 02:07:43;;;;;;;4.80;1.20;;;;;;;-0.06;100.00;98251.09;1733299;80;21075;-66
2022/01/15 02:10:12;;;;;;;4.03;1.17;;;;;;;-0.11;100.00;98245.70;1732988;81;21073;-65
2022/01/15 02:12:40;;;;;;;9.60;1.12;;;;;;;-0.16;100.00;98254.67;1737402;81;21168;-61
2022/01/15 02:15:14;;;;;;;3.75;1.10;;;;;;;-0.17;99.90;98247.62;1737539;79;21080;-65
2022/01/15 02:17:43;;;;;;;5.50;1.22;;;;;;;-0.15;96.70;98252.22;1739565;80;21033;-64
2022/01/15 02:25:49;;;;;;;6.33;1.12;;;;;;;-0.04;95.21;98265.16;1748144;80;21584;-64
2022/01/15 02:28:25;;;;;;;6.72;1.10;;;;;;;-0.04;96.96;98268.41;1732720;81;21092;-66
2022/01/15 02:30:55;;;;;;;3.27;1.20;;;;;;;-0.13;97.19;98272.25;1741595;81;21034;-63
2022/01/15 02:33:23;;;;;;;5.05;1.17;;;;;;;-0.26;100.00;98275.82;1704762;81;21084;-65
2022/01/15 02:35:51;;;;;;;3.62;0.88;;;;;;;-0.39;100.00;98287.26;1700019;82;20997;-65
2022/01/15 02:38:20;;;;;;;5.62;1.27;;;;;;;-0.47;100.00;98285.95;1707431;81;21012;-67
2022/01/15 02:40:47;;;;;;;7.47;1.47;;;;;;;-0.59;100.00;98288.97;1697703;82;21060;-65
2022/01/15 02:43:18;;;;;;;4.10;0.80;;;;;;;-0.62;100.00;98284.94;1718766;81;21017;-65
2022/01/15 02:45:55;;;;;;;3.90;1.12;;;;;;;-0.63;100.00;98289.24;1704887;81;21121;-65
2022/01/15 02:48:25;;;;;;;7.53;1.45;;;;;;;-0.59;100.00;98288.97;1713612;81;21156;-64
2022/01/15 02:50:53;;;;;;;5.83;1.17;;;;;;;-0.57;100.00;98300.87;1696824;82;21253;-66
2022/01/15 02:53:22;;;;;;;3.85;0.98;;;;;;;-0.48;100.00;98301.12;1724534;82;21342;-65
2022/01/15 02:55:52;;;;;;;3.58;0.95;;;;;;;-0.42;100.00;98299.46;1695843;82;21537;-66
2022/01/15 02:58:20;;;;;;;2.67;1.05;;;;;;;-0.37;100.00;98304.04;1706844;81;21304;-67
2022/01/15 03:00:47;;;;;;;4.40;0.82;;;;;;;-0.28;100.00;98308.34;1703043;82;21010;-66
2022/01/15 03:03:13;;;;;;;5.15;1.12;;;;;;;-0.20;99.17;98313.17;1690977;82;21553;-64
2022/01/15 03:05:40;;;;;;;3.98;1.00;;;;;;;-0.10;97.67;98316.94;1703866;82;21014;-63
2022/01/15 03:08:09;;;;;;;3.35;0.70;;;;;;;-0.01;94.49;98324.19;1707200;81;20998;-64
2022/01/15 03:10:36;;;;;;;3.50;1.25;;;;;;;0.06;88.24;98311.69;1705175;82;21223;-66
2022/01/15 03:13:09;;;;;;;12.63;0.90;;;;;;;0.10;84.42;98313.30;1737407;81;21015;-64
2022/01/15 03:15:33;;;;;;;5.47;0.95;;;;;;;0.17;81.95;98312.98;1720117;81;21159;-67
2022/01/15 03:17:59;;;;;;;2.50;0.75;;;;;;;0.22;80.30;98329.22;1733113;81;21558;-63
2022/01/15 03:20:25;;;;;;;8.75;1.47;;;;;;;0.23;78.54;98320.80;1709382;81;21068;-65
2022/01/15 03:22:55;;;;;;;11.65;1.05;;;;;;;0.28;78.48;98324.55;1712347;82;21216;-63
2022/01/15 03:25:22;;;;;;;6.87;1.17;;;;;;;0.29;76.92;98322.92;1718893;81;21513;-63
2022/01/15 03:27:50;;;;;;;4.78;0.80;;;;;;;0.30;76.37;98325.09;1697952;82;21039;-65
2022/01/15 03:30:17;;;;;;;5.55;0.88;;;;;;;0.32;76.00;98329.16;1707699;82;21178;-64
2022/01/15 03:32:44;;;;;;;8.78;1.00;;;;;;;0.31;73.97;98330.23;1710071;82;21643;-62
2022/01/15 03:35:15;;;;;;;5.92;0.68;;;;;;;0.31;72.73;98333.47;1695744;81;21071;-66
2022/01/15 03:37:43;;;;;;;2.55;0.98;;;;;;;0.29;72.05;98322.92;1705573;83;21545;-67
2022/01/15 03:40:13;;;;;;;3.67;1.10;;;;;;;0.29;72.09;98329.69;1688867;81;21145;-67
2022/01/15 03:42:39;;;;;;;6.42;1.35;;;;;;;0.31;71.91;98337.54;1711275;82;21087;-64
2022/01/15 03:45:07;;;;;;;11.28;0.90;;;;;;;0.33;71.71;98343.50;1687637;82;21036;-64
2022/01/15 03:47:33;;;;;;;1.45;0.70;;;;;;;0.35;72.53;98335.90;1690481;82;21163;-67
2022/01/15 03:50:00;;;;;;;3.08;0.70;;;;;;;0.35;70.46;98350.27;1694756;83;20998;-65
2022/01/15 03:52:28;;;;;;;2.40;0.90;;;;;;;0.34;68.89;98346.48;1714972;82;21048;-62
2022/01/15 03:54:56;;;;;;;3.80;0.98;;;;;;;0.36;69.12;98339.69;1705076;81;21057;-66
2022/01/15 03:57:22;;;;;;;2.12;0.70;;;;;;;0.35;68.39;98339.97;1710637;82;21520;-64
2022/01/15 03:59:51;;;;;;;4.92;0.80;;;;;;;0.38;68.76;98349.42;1676336;83;21106;-63
2022/01/15 04:02:18;;;;;;;4.28;1.10;;;;;;;0.38;68.57;98342.11;1709487;82;21159;-64
2022/01/15 04:04:44;;;;;;;6.30;1.15;;;;;;;0.41;68.48;98344.81;1700496;82;21127;-67
2022/01/15 04:07:11;;;;;;;3.22;1.20;;;;;;;0.43;68.03;98338.55;1720021;81;21526;-64
2022/01/15 04:09:40;;;;;;;3.62;0.98;;;;;;;0.44;67.62;98353.73;1710644;82;21033;-67
2022/01/15 04:12:07;;;;;;;1.95;0.53;;;;;;;0.47;67.86;98340.97;1718511;82;21213;-65
2022/01/15 04:14:33;;;;;;;4.40;1.12;;;;;;;0.47;67.29;98348.56;1693380;82;21050;-66
2022/01/15 04:17:00;;;;;;;8.18;2.02;;;;;;;0.50;68.18;98342.30;1713167;82;21479;-65
2022/01/15 04:19:29;;;;;;;2.35;0.80;;;;;;;0.47;67.38;98353.17;1706270;82;21415;-66
2022/01/15 04:21:56;;;;;;;9.48;1.17;;;;;;;0.50;67.17;98362.63;1699417;82;21603;-66
2022/01/15 04:24:23;;;;;;;6.37;0.98;;;;;;;0.51;67.46;98359.66;1691908;83;23212;-65
2022/01/15 04:26:51;;;;;;;2.45;0.90;;;;;;;0.51;67.27;98363.73;1696681;82;21101;-68
2022/01/15 04:29:20;;;;;;;2.92;0.80;;;;;;;0.51;67.01;98368.33;1693046;82;21010;-65
2022/01/15 04:31:49;;;;;;;3.47;0.80;;;;;;;0.55;67.04;98363.95;1696632;82;21134;-65
2022/01/15 04:34:19;;;;;;;3.75;1.25;;;;;;;0.57;67.25;98365.84;1745705;80;21192;-65
2022/01/15 04:36:47;;;;;;;3.72;1.22;;;;;;;0.56;67.00;98357.45;1749868;80;21917;-64
2022/01/15 04:39:15;;;;;;;5.10;0.68;;;;;;;0.56;67.13;98369.66;1746376;80;21005;-66
2022/01/15 04:41:44;;;;;;;3.70;1.52;;;;;;;0.56;67.06;98378.58;1733713;79;21472;-65
2022/01/15 04:44:10;;;;;;;4.78;1.25;;;;;;;0.59;67.07;98379.94;1735247;80;20998;-64
2022/01/15 04:46:39;;;;;;;4.92;1.20;;;;;;;0.58;66.66;98381.03;1745602;80;21036;-65
2022/01/15 04:49:05;;;;;;;3.62;1.22;;;;;;;0.59;66.81;98369.09;1753056;79;21047;-67
2022/01/15 04:51:34;;;;;;;5.72;1.30;;;;;;;0.59;66.10;98379.94;1751354;79;21701;-64
2022/01/15 04:54:03;;;;;;;2.60;0.90;;;;;;;0.61;66.27;98381.83;1745459;80;21083;-65
2022/01/15 04:56:30;;;;;;;6.33;1.20;;;;;;;0.60;66.52;98384.25;1746234;81;21061;-67
2022/01/15 04:58:57;;;;;;;2.12;0.70;;;;;;;0.59;66.46;98378.58;1743581;80;21057;-66
2022/01/15 05:01:23;;;;;;;2.25;0.80;;;;;;;0.58;66.15;98391.31;1741623;80;21909;-66
2022/01/15 05:03:49;;;;;;;6.22;1.00;;;;;;;0.59;66.12;98379.39;1737691;80;21129;-66
2022/01/15 05:06:19;;;;;;;6.25;0.90;;;;;;;0.63;66.26;98393.20;1730169;80;21085;-63
2022/01/15 05:08:51;;;;;;;1.75;0.65;;;;;;;0.64;66.63;98381.25;1736728;80;21021;-66
2022/01/15 05:11:29;;;;;;;3.98;1.07;;;;;;;0.64;66.35;98393.45;1708622;82;21206;-64
2022/01/15 05:13:44;;;;;;;5.30;1.20;;;;;;;0.64;66.31;98393.45;1715770;81;21782;-65
2022/01/15 05:16:10;;;;;;;12.50;1.07;;;;;;;0.66;66.26;98389.92;1705350;82;21027;-66
2022/01/15 05:18:36;;;;;;;2.50;1.12;;;;;;;0.67;66.59;98390.17;1707938;82;21111;-66
2022/01/15 05:21:03;;;;;;;5.53;1.37;;;;;;;0.68;66.80;98389.64;1706417;81;21039;-66
2022/01/15 05:23:29;;;;;;;3.47;1.17;;;;;;;0.69;66.78;98399.38;1704162;82;21629;-65
2022/01/15 05:25:57;;;;;;;4.05;1.65;;;;;;;0.70;67.07;98402.38;1697478;83;21013;-67
2022/01/15 05:28:23;;;;;;;6.03;1.30;;;;;;;0.70;66.89;98401.81;1706958;82;21223;-64
2022/01/15 05:30:51;;;;;;;7.47;1.57;;;;;;;0.69;66.73;98402.91;1694342;82;21098;-67
2022/01/15 05:33:19;;;;;;;4.92;1.12;;;;;;;0.69;66.79;98407.52;1682218;82;21099;-65
2022/01/15 05:35:45;;;;;;;2.90;1.02;;;;;;;0.68;66.23;98410.77;1707821;81;21497;-66
2022/01/15 05:38:11;;;;;;;4.33;1.42;;;;;;;0.70;65.21;98419.44;1702430;81;21217;-68
2022/01/15 05:40:38;;;;;;;6.75;1.77;;;;;;;0.76;65.35;98420.77;1696502;82;21735;-66
2022/01/15 05:43:04;;;;;;;2.85;1.00;;;;;;;0.78;65.06;98418.05;1699942;82;21007;-65
2022/01/15 05:45:32;;;;;;;3.15;1.80;;;;;;;0.82;65.07;98430.50;1702886;82;21068;-67
2022/01/15 05:47:59;;;;;;;5.15;1.32;;;;;;;0.83;65.15;98415.84;1691896;82;21050;-66
2022/01/15 05:50:26;;;;;;;3.52;0.90;;;;;;;0.83;65.02;98420.73;1705295;82;21873;-67
2022/01/15 05:52:52;;;;;;;3.98;1.37;;;;;;;0.83;64.21;98428.05;1695590;82;21036;-63
2022/01/15 05:55:34;;;;;;;7.08;1.37;;;;;;;0.83;63.96;98434.29;1702134;82;21052;-67
2022/01/15 05:58:14;;;;;;;4.60;1.60;;;;;;;0.85;64.11;98425.87;1696687;82;21063;-68
2022/01/15 06:00:42;;;;;;;3.15;1.47;;;;;;;0.84;64.17;98437.79;1703036;81;21019;-65
2022/01/15 06:03:08;;;;;;;4.40;1.35;;;;;;;0.86;63.56;98424.77;1709622;82;21173;-64
2022/01/15 06:05:35;;;;;;;3.17;1.35;;;;;;;0.87;63.05;98426.38;1709299;82;21197;-65
2022/01/15 06:08:01;;;;;;;2.20;1.00;;;;;;;0.90;63.02;98442.64;1707360;82;21493;-66
2022/01/15 06:10:29;;;;;;;2.60;1.00;;;;;;;0.91;62.67;98436.94;1694372;82;21142;-63
2022/01/15 06:12:58;;;;;;;2.95;0.98;;;;;;;0.91;62.86;98434.22;1705638;82;21082;-65
2022/01/15 06:15:25;;;;;;;5.35;0.95;;;;;;;0.92;63.00;98437.19;1713643;82;21150;-68
2022/01/15 06:17:53;;;;;;;4.05;2.75;;;;;;;0.93;63.32;98451.03;1721250;82;21107;-66
2022/01/15 06:20:20;;;;;;;1.90;0.90;;;;;;;0.92;63.12;98438.55;1717944;82;21168;-66
2022/01/15 06:22:48;;;;;;;1.65;0.70;;;;;;;0.95;63.18;98461.60;1709095;81;21162;-65
2022/01/15 06:25:16;;;;;;;1.90;0.90;;;;;;;0.97;62.57;98451.28;1735237;81;21568;-65
2022/01/15 06:27:44;;;;;;;3.42;0.90;;;;;;;0.99;62.62;98457.22;1737122;81;21144;-65
2022/01/15 06:30:11;;;;;;;3.87;1.02;;;;;;;0.99;62.52;98462.64;1705837;82;21006;-65
2022/01/15 06:32:40;;;;;;;7.47;1.50;;;;;;;1.01;62.31;98463.17;1700789;82;21009;-64
2022/01/15 06:35:10;;;;;;;3.45;1.72;;;;;;;1.02;62.35;98459.39;1714169;80;21037;-66
2022/01/15 06:37:37;;;;;;;4.60;1.90;;;;;;;1.04;62.67;98464.53;1722712;80;21038;-64
2022/01/15 06:40:05;;;;;;;4.30;1.35;;;;;;;1.05;63.01;98472.39;1743307;80;21669;-67
2022/01/15 06:42:36;;;;;;;4.85;1.50;;;;;;;1.04;62.82;98480.24;1734925;79;21708;-67
2022/01/15 06:45:08;;;;;;;3.40;1.42;;;;;;;1.07;63.11;98479.70;1692999;82;21142;-67
2022/01/15 06:47:40;;;;;;;5.22;1.50;;;;;;;1.08;63.14;98487.27;1741297;79;21243;-63
2022/01/15 06:50:12;;;;;;;7.08;1.52;;;;;;;1.09;63.72;98483.48;1746902;79;21097;-66
2022/01/15 06:52:38;;;;;;;4.87;1.87;;;;;;;1.10;63.79;98487.81;1737237;79;21322;-65
2022/01/15 06:55:07;;;;;;;4.55;1.80;;;;;;;1.12;63.92;98486.98;1752727;81;21046;-68
2022/01/15 06:57:34;;;;;;;7.25;2.45;;;;;;;1.14;64.36;98495.66;1764601;80;21025;-66
2022/01/15 07:00:05;;;;;;;5.85;2.20;;;;;;;1.17;64.45;98506.48;1747164;80;21536;-64
2022/01/15 07:02:33;;;;;;;6.17;1.97;;;;;;;1.18;64.29;98502.13;1742402;79;21108;-64
2022/01/15 07:04:59;;;;;;;6.47;2.17;;;;;;;1.17;64.71;98498.34;1738337;79;21528;-67
2022/01/15 07:07:28;;;;;;;7.85;1.90;;;;;;;1.17;64.74;98501.88;1756929;79;21042;-67
2022/01/15 07:09:59;;;;;;;4.75;1.65;;;;;;;1.19;64.94;98502.95;1743329;79;21156;-67
2022/01/15 07:12:26;;;;;;;6.42;2.42;;;;;;;1.21;64.99;98508.34;1743669;79;21086;-65
2022/01/15 07:14:53;;;;;;;6.47;2.20;;;;;;;1.20;65.04;98509.98;1751622;80;21059;-66
2022/01/15 07:17:19;;;;;;;8.93;2.55;;;;;;;1.18;65.14;98511.63;1747040;79;21228;-64
2022/01/15 07:19:51;;;;;;;5.97;1.90;;;;;;;1.19;65.15;98509.73;1754445;79;21005;-67
2022/01/15 07:22:15;;;;;;;5.20;1.90;;;;;;;1.19;65.07;98517.34;1731824;81;21002;-67
2022/01/15 07:24:43;;;;;;;4.50;2.10;;;;;;;1.20;65.18;98518.95;1726334;81;21999;-67
2022/01/15 07:27:11;;;;;;;4.70;1.52;;;;;;;1.20;65.39;98525.73;1732242;81;21031;-67
2022/01/15 07:29:39;;;;;;;5.60;2.00;;;;;;;1.19;65.40;98532.81;1731938;81;21871;-67
2022/01/15 07:32:09;;;;;;;4.53;1.40;;;;;;;1.19;65.60;98536.34;1736433;79;21010;-66
2022/01/15 07:34:36;;;;;;;3.22;1.62;;;;;;;1.20;65.22;98535.23;1743111;79;21154;-67
2022/01/15 07:37:04;;;;;;;2.75;1.12;;;;;;;1.22;65.30;98529.52;1736146;80;21753;-65
2022/01/15 07:39:35;;;;;;;5.50;2.10;;;;;;;1.24;65.26;98518.38;1725790;81;21606;-67
2022/01/15 07:42:01;;;;;;;4.80;2.05;;;;;;;1.28;65.59;98530.31;1744557;81;21455;-64
2022/01/15 07:44:28;;;;;;;6.90;3.65;;;;;;;1.32;65.66;98527.28;1736101;81;21559;-68
2022/01/15 07:46:55;;;;;;;7.62;2.67;;;;;;;1.34;65.30;98531.88;1730779;81;21050;-64
2022/01/15 07:49:25;;;;;;;5.97;2.00;;;;;;;1.36;65.49;98530.24;1743316;81;21145;-66
2022/01/15 07:51:51;;;;;;;6.50;1.55;;;;;;;1.36;65.35;98537.03;1737505;81;20981;-65
2022/01/15 07:54:21;;;;;;;6.22;3.50;;;;;;;1.36;65.44;98522.92;1733407;81;21098;-65
2022/01/15 07:56:47;;;;;;;6.78;2.47;;;;;;;1.40;65.46;98536.73;1737383;80;21059;-65
2022/01/15 07:59:15;;;;;;;4.53;1.35;;;;;;;1.44;65.40;98533.17;1738322;81;21003;-67
2022/01/15 08:01:42;;;;;;;2.75;1.10;;;;;;;1.45;65.10;98529.91;1741276;81;21057;-67
2022/01/15 08:04:11;;;;;;;5.85;1.90;;;;;;;1.44;64.78;98530.98;1733095;81;21032;-65
2022/01/15 08:06:39;;;;;;;11.63;3.05;;;;;;;1.41;65.11;98545.95;1735625;81;21964;-65
2022/01/15 08:09:05;;;;;;;2.70;1.22;;;;;;;1.41;65.58;98547.31;1742827;81;21058;-67
2022/01/15 08:11:32;;;;;;;5.90;2.20;;;;;;;1.35;70.40;98548.99;1734980;81;21063;-61
2022/01/15 08:14:05;;;;;;;5.85;1.57;;;;;;;1.34;72.61;98541.39;1709641;81;21033;-65
2022/01/15 08:16:35;;;;;;;5.22;1.60;;;;;;;1.32;71.79;98548.45;1739767;79;21625;-64
2022/01/15 08:19:01;;;;;;;7.58;2.27;;;;;;;1.31;72.82;98549.53;1736650;79;21213;-64
2022/01/15 08:21:28;;;;;;;6.78;2.72;;;;;;;1.33;72.59;98555.50;1727637;81;21588;-67
2022/01/15 08:23:54;;;;;;;7.40;2.25;;;;;;;1.36;67.96;98560.11;1730292;81;21029;-63
2022/01/15 08:26:22;;;;;;;6.95;3.15;;;;;;;1.34;67.41;98560.39;1754842;79;21080;-66
2022/01/15 08:28:49;;;;;;;3.75;1.22;;;;;;;1.37;67.46;98571.22;1748076;80;21045;-66
2022/01/15 08:31:15;;;;;;;5.05;1.35;;;;;;;1.40;66.91;98596.47;1767811;80;21057;-64
2022/01/15 08:33:41;;;;;;;3.77;1.65;;;;;;;1.41;66.97;98579.08;1693141;83;21056;-66
2022/01/15 08:36:10;;;;;;;3.55;1.30;;;;;;;1.43;67.11;98580.41;1698342;83;21124;-67
2022/01/15 08:38:38;;;;;;;8.48;2.05;;;;;;;1.42;67.07;98591.01;1716336;81;21112;-67
2022/01/15 08:41:05;;;;;;;2.95;1.27;;;;;;;1.39;67.44;98582.61;1753218;80;21077;-66
2022/01/15 08:43:32;;;;;;;10.35;2.27;;;;;;;1.42;67.35;98588.83;1752252;79;21173;-66
2022/01/15 08:46:02;;;;;;;6.22;1.80;;;;;;;1.46;67.62;98607.55;1739055;79;21124;-64
2022/01/15 08:48:33;;;;;;;3.83;1.77;;;;;;;1.50;68.73;98608.59;1694112;82;22256;-67
2022/01/15 08:50:59;;;;;;;4.10;1.55;;;;;;;1.43;78.08;98602.12;1718159;82;21067;-68
2022/01/15 08:53:25;;;;;;;4.58;1.57;;;;;;;1.35;78.53;98601.93;1699544;82;21094;-66
2022/01/15 08:55:53;;;;;;;8.25;2.15;;;;;;;1.27;80.34;98606.03;1700857;82;22713;-65
2022/01/15 08:58:25;;;;;;;3.87;2.00;;;;;;;1.21;77.63;98603.34;1691821;82;20987;-65
2022/01/15 09:00:55;;;;;;;5.75;1.90;;;;;;;1.19;80.35;98603.38;1696496;82;21291;-66
2022/01/15 09:03:22;;;;;;;5.25;2.37;;;;;;;1.17;78.42;98605.02;1666664;83;20981;-65
2022/01/15 09:05:50;;;;;;;8.30;2.42;;;;;;;1.16;75.25;98610.16;1695140;82;21494;-62
2022/01/15 09:08:19;;;;;;;7.60;1.82;;;;;;;1.23;73.65;98609.06;1707731;82;21510;-66
2022/01/15 09:10:46;;;;;;;7.58;2.55;;;;;;;1.28;71.69;98593.53;1702702;82;21503;-64
2022/01/15 09:13:14;;;;;;;5.85;2.40;;;;;;;1.35;71.30;98595.14;1741094;81;21014;-62
2022/01/15 09:15:42;;;;;;;7.90;3.55;;;;;;;1.37;70.74;98607.33;1741742;81;21084;-62
2022/01/15 09:18:10;;;;;;;4.45;1.75;;;;;;;1.38;72.41;98610.86;1681420;82;21177;-63
2022/01/15 09:20:36;;;;;;;6.25;1.37;;;;;;;1.36;78.11;98612.50;1735579;79;21137;-65
2022/01/15 09:23:05;;;;;;;5.90;1.90;;;;;;;1.34;75.93;98613.33;1751016;79;21106;-64
2022/01/15 09:25:31;;;;;;;3.40;1.32;;;;;;;1.37;74.17;98625.52;1747914;79;21523;-64
2022/01/15 09:30:43;;;;;;;3.45;1.20;;;;;;;1.47;71.72;98617.88;1726485;79;21597;-67
2022/01/15 09:33:11;;;;;;;4.17;1.17;;;;;;;1.60;71.06;98625.92;1738141;81;21120;-63
2022/01/15 09:35:38;;;;;;;3.72;1.17;;;;;;;1.66;69.42;98632.39;1747141;79;21574;-65
2022/01/15 09:38:05;;;;;;;4.30;1.80;;;;;;;1.73;69.37;98636.69;1754316;80;21097;-66
2022/01/15 09:40:31;;;;;;;3.85;1.40;;;;;;;1.77;69.88;98631.79;1746852;79;21080;-64
2022/01/15 09:42:58;;;;;;;8.08;2.45;;;;;;;1.77;70.33;98632.33;1746338;80;21681;-65
2022/01/15 09:45:24;;;;;;;10.88;2.72;;;;;;;1.68;70.36;98646.52;1736742;81;21204;-66
2022/01/15 09:47:59;;;;;;;5.25;1.90;;;;;;;1.64;70.90;98631.86;1734591;81;21087;-69
2022/01/15 09:50:27;;;;;;;8.18;2.65;;;;;;;1.64;71.01;98631.07;1735429;81;21040;-67
2022/01/15 09:52:53;;;;;;;5.92;2.08;;;;;;;1.64;71.15;98631.86;1743364;81;21097;-69
2022/01/15 09:55:21;;;;;;;2.62;1.55;;;;;;;1.67;71.21;98627.78;1741493;81;21068;-69
2022/01/15 09:57:48;;;;;;;7.60;2.20;;;;;;;1.65;70.69;98634.05;1734115;81;21609;-65
2022/01/15 10:00:17;;;;;;;5.22;2.05;;;;;;;1.61;70.71;98631.61;1681256;83;21146;-68
2022/01/15 10:02:49;;;;;;;6.97;1.82;;;;;;;1.62;71.78;98631.89;1700951;82;21038;-67
2022/01/15 10:05:16;;;;;;;9.38;2.17;;;;;;;1.58;71.42;98631.11;1699484;81;21016;-68
2022/01/15 10:08:02;;;;;;;6.00;1.60;;;;;;;1.58;71.50;98632.46;1699820;82;21539;-65
2022/01/15 10:10:32;;;;;;;6.92;1.70;;;;;;;1.62;71.54;98623.17;1690314;83;21125;-67
2022/01/15 10:13:22;;;;;;;10.80;3.15;;;;;;;1.64;71.11;98627.00;1749520;79;21123;-65
2022/01/15 10:16:02;;;;;;;6.70;1.82;;;;;;;1.67;71.10;98638.65;1734204;79;21073;-66
2022/01/15 10:18:35;;;;;;;3.05;1.50;;;;;;;1.72;70.45;98650.02;1724485;81;21134;-67
2022/01/15 10:21:26;;;;;;;10.58;3.80;;;;;;;1.74;70.29;98646.48;1740802;81;21050;-64
2022/01/15 10:23:54;;;;;;;3.58;1.98;;;;;;;1.74;69.94;98654.63;1735033;81;23237;-67
2022/01/15 10:26:31;;;;;;;5.90;2.22;;;;;;;1.73;69.17;98642.13;1743403;81;21157;-66
2022/01/15 10:29:04;;;;;;;11.48;2.67;;;;;;;1.70;68.63;98648.95;1692010;81;21073;-66
2022/01/15 10:31:39;;;;;;;5.22;1.70;;;;;;;1.73;68.89;98655.70;1714942;80;21030;-66
2022/01/15 10:34:37;;;;;;;5.83;2.00;;;;;;;1.70;68.84;98665.24;1697584;81;21016;-66
2022/01/15 10:37:12;;;;;;;10.85;3.02;;;;;;;1.67;69.32;98666.60;1730030;81;21790;-65
2022/01/15 10:39:39;;;;;;;5.95;2.58;;;;;;;1.62;69.66;98674.78;1732657;80;21121;-69
2022/01/15 10:42:19;;;;;;;7.28;2.35;;;;;;;1.44;85.53;98664.86;1735805;79;21248;-69
2022/01/15 10:44:45;;;;;;;5.25;1.20;;;;;;;1.38;82.61;98705.32;1739926;80;21121;-67
2022/01/15 10:47:14;;;;;;;4.05;1.65;;;;;;;1.24;79.06;98669.02;1747292;79;21057;-68
2022/01/15 10:49:41;;;;;;;4.58;1.77;;;;;;;1.21;78.85;98675.84;1753014;79;20985;-68
2022/01/15 10:52:21;;;;;;;7.08;2.47;;;;;;;1.24;79.31;98668.48;1752673;79;21138;-67
2022/01/15 10:55:09;;;;;;;6.70;3.25;;;;;;;1.27;77.55;98679.32;1753728;79;21071;-67
2022/01/15 10:57:40;;;;;;;13.80;6.35;;;;;;;1.24;75.48;98664.41;1741759;79;20993;-67
2022/01/15 11:00:11;;;;;;;6.45;2.87;;;;;;;1.18;77.01;98685.33;1761535;79;21059;-65
2022/01/15 11:02:40;;;;;;;10.50;3.55;;;;;;;1.11;79.80;98682.09;1744434;80;21103;-66
2022/01/15 11:05:27;;;;;;;11.35;5.08;;;;;;;1.13;85.58;98673.67;1740596;80;21684;-63
2022/01/15 11:07:56;;;;;;;7.05;2.30;;;;;;;1.13;84.33;98688.06;1743201;80;21057;-67
2022/01/15 11:10:24;;;;;;;13.80;3.70;;;;;;;1.14;83.09;98697.03;1757854;79;21210;-67
2022/01/15 11:12:51;;;;;;;8.38;2.90;;;;;;;1.20;82.93;98690.48;1756292;79;21117;-64
2022/01/15 11:15:21;;;;;;;9.00;4.03;;;;;;;1.30;80.78;98678.75;1740343;80;21088;-67
2022/01/15 11:17:50;;;;;;;5.58;2.75;;;;;;;1.36;78.33;98675.48;1698203;81;21114;-65
2022/01/15 11:20:20;;;;;;;6.45;2.00;;;;;;;1.40;75.72;98674.64;1721532;81;21549;-68
2022/01/15 11:22:46;;;;;;;7.10;2.52;;;;;;;1.46;74.67;98680.86;1709808;80;21021;-64
2022/01/15 11:25:14;;;;;;;5.90;2.22;;;;;;;1.52;73.72;98693.88;1719074;80;21096;-67
2022/01/15 11:27:41;;;;;;;9.50;2.90;;;;;;;1.56;73.30;98693.56;1704083;81;22165;-70
2022/01/15 11:30:12;;;;;;;3.02;1.50;;;;;;;1.58;72.82;98698.18;1710445;81;21041;-68
2022/01/15 11:32:41;;;;;;;6.53;2.75;;;;;;;1.60;72.71;98693.28;1730305;81;21052;-62
2022/01/15 11:35:12;;;;;;;6.90;2.02;;;;;;;1.65;72.49;98692.44;1706400;81;21013;-63
2022/01/15 11:37:46;;;;;;;4.97;1.92;;;;;;;1.64;71.59;98699.77;1703379;81;21035;-68
2022/01/15 11:40:34;;;;;;;8.40;2.17;;;;;;;1.66;71.26;98703.55;1686061;81;21175;-67
2022/01/15 11:43:31;;;;;;;8.00;2.45;;;;;;;1.67;70.37;98704.63;1706675;80;20987;-63
2022/01/15 11:45:59;;;;;;;10.48;2.55;;;;;;;1.64;70.43;98699.77;1691251;82;21497;-66
2022/01/15 11:48:35;;;;;;;5.97;2.62;;;;;;;1.67;70.95;98710.06;1687660;82;21072;-66
2022/01/15 11:51:23;;;;;;;5.78;1.87;;;;;;;1.71;70.85;98715.75;1710908;81;21049;-65
2022/01/15 11:54:01;;;;;;;8.78;2.27;;;;;;;1.75;70.13;98726.87;1713709;81;21055;-68
2022/01/15 11:56:31;;;;;;;1.77;0.95;;;;;;;1.74;69.02;98726.05;1706805;82;21507;-67
2022/01/15 11:58:58;;;;;;;4.08;1.55;;;;;;;1.67;68.17;98723.64;1680120;81;21091;-67
2022/01/15 12:01:43;;;;;;;3.55;1.80;;;;;;;1.62;68.65;98732.38;1672705;82;21557;-63
2022/01/15 12:04:34;;;;;;;2.15;1.10;;;;;;;1.61;69.19;98734.28;1747571;79;21255;-65